ELY777 LKPR-LLBG
Flight info
| Callsign | ELY777 |
|---|---|
| Flight time | N/A |
| Altitude | 33000 |
| Route | VOZ DCT PISAM/N0470F370 DCT STO DCT ABETI DCT BABIT DCT OKLOP DCT NISVA DCT VIT DCT USALI/N0470F390 DCT RODIP UN131 PIBOM DCT BELGI UN131 KULAR UT39 TOMBI DCT IDAKU L35 PIKOG L609 ZUKKO |
| Aircraft | B772/H-SDE2E3FGHIJ5LORVWXY/LB1D1 |
Departure
| Time | 2026-05-06 18:55 |
|---|---|
| Airport | Václav Havel Airport Prague (LKPR) |
Arrival
| Time | N/A |
|---|---|
| Airport | Ben Gurion International Airport (LLBG) |
| Time | Latitude | Longitude | Altitude | Speed | Heading |
|---|---|---|---|---|---|
| 2026-05-06 18:06 | 50.10845 | 14.26440 | 1178 ft | 0 kts | 35° |
| 2026-05-06 18:07 | 50.10840 | 14.26434 | 1178 ft | 0 kts | 35° |
| 2026-05-06 18:25 | 50.10838 | 14.26432 | 1178 ft | 3 kts | 35° |
| 2026-05-06 18:25 | 50.10816 | 14.26409 | 1173 ft | 4 kts | 30° |
| 2026-05-06 18:26 | 50.10793 | 14.26394 | 1173 ft | 4 kts | 358° |
| 2026-05-06 18:26 | 50.10779 | 14.26401 | 1173 ft | 2 kts | 304° |
| 2026-05-06 18:26 | 50.10789 | 14.26378 | 1173 ft | 1 kts | 304° |
| 2026-05-06 18:26 | 50.10789 | 14.26377 | 1173 ft | 0 kts | 304° |
| 2026-05-06 18:32 | 50.10805 | 14.26336 | 1174 ft | 12 kts | 301° |
| 2026-05-06 18:32 | 50.10843 | 14.26225 | 1174 ft | 12 kts | 302° |
| 2026-05-06 18:32 | 50.10889 | 14.26121 | 1172 ft | 12 kts | 303° |
| 2026-05-06 18:33 | 50.10938 | 14.26013 | 1166 ft | 13 kts | 305° |
| 2026-05-06 18:33 | 50.10920 | 14.25872 | 1168 ft | 17 kts | 220° |
| 2026-05-06 18:33 | 50.10826 | 14.25768 | 1169 ft | 17 kts | 214° |
| 2026-05-06 18:33 | 50.10731 | 14.25666 | 1171 ft | 13 kts | 214° |
| 2026-05-06 18:34 | 50.10721 | 14.25655 | 1171 ft | 0 kts | 214° |
| 2026-05-06 18:35 | 50.10698 | 14.25628 | 1172 ft | 12 kts | 221° |
| 2026-05-06 18:35 | 50.10709 | 14.25443 | 1167 ft | 24 kts | 297° |
| 2026-05-06 18:35 | 50.10747 | 14.25337 | 1162 ft | 0 kts | 299° |
| 2026-05-06 18:37 | 50.10747 | 14.25336 | 1162 ft | 0 kts | 299° |
| 2026-05-06 18:37 | 50.10756 | 14.25312 | 1138 ft | 2 kts | 299° |
| 2026-05-06 18:37 | 50.10762 | 14.25296 | 1136 ft | 1 kts | 298° |
| 2026-05-06 18:39 | 50.10762 | 14.25295 | 1164 ft | 0 kts | 298° |
| 2026-05-06 18:43 | 50.10762 | 14.25294 | 1164 ft | 0 kts | 298° |
| 2026-05-06 18:45 | 50.10776 | 14.25253 | 1160 ft | 9 kts | 298° |
| 2026-05-06 18:45 | 50.10801 | 14.25171 | 1158 ft | 6 kts | 289° |
| 2026-05-06 18:45 | 50.10801 | 14.25168 | 1158 ft | 0 kts | 289° |
| 2026-05-06 18:50 | 50.10808 | 14.25125 | 1158 ft | 9 kts | 281° |
| 2026-05-06 18:50 | 50.10809 | 14.25117 | 1159 ft | 0 kts | 281° |
| 2026-05-06 18:51 | 50.10809 | 14.25116 | 1159 ft | 0 kts | 281° |
| 2026-05-06 18:52 | 50.10815 | 14.25040 | 1161 ft | 10 kts | 276° |
| 2026-05-06 18:52 | 50.10818 | 14.24867 | 1158 ft | 19 kts | 265° |
| 2026-05-06 18:52 | 50.10791 | 14.24680 | 1162 ft | 14 kts | 242° |
| 2026-05-06 18:52 | 50.10729 | 14.24695 | 1163 ft | 6 kts | 134° |
| 2026-05-06 18:53 | 50.10728 | 14.24696 | 1163 ft | 0 kts | 134° |
| 2026-05-06 18:54 | 50.10667 | 14.24812 | 1162 ft | 37 kts | 127° |
| 2026-05-06 18:54 | 50.10369 | 14.25432 | 1181 ft | 104 kts | 127° |
| 2026-05-06 18:54 | 50.09807 | 14.26587 | 1214 ft | 161 kts | 127° |
| 2026-05-06 18:54 | 50.09061 | 14.28073 | 1632 ft | 184 kts | 126° |
| 2026-05-06 18:55 | 50.08233 | 14.29784 | 2103 ft | 212 kts | 126° |
| 2026-05-06 18:55 | 50.07338 | 14.31655 | 2885 ft | 218 kts | 126° |
| 2026-05-06 18:55 | 50.06396 | 14.33618 | 3331 ft | 233 kts | 127° |
| 2026-05-06 18:55 | 50.05742 | 14.34970 | 3664 ft | 238 kts | 127° |
| 2026-05-06 18:56 | 50.04732 | 14.37055 | 4264 ft | 244 kts | 129° |
| 2026-05-06 18:56 | 50.03699 | 14.39190 | 4829 ft | 250 kts | 128° |
| 2026-05-06 18:56 | 50.02625 | 14.41400 | 5330 ft | 261 kts | 129° |
| 2026-05-06 18:56 | 50.01510 | 14.43695 | 5914 ft | 269 kts | 130° |
| 2026-05-06 18:57 | 50.00368 | 14.46042 | 6573 ft | 274 kts | 130° |
| 2026-05-06 18:57 | 49.99210 | 14.48417 | 7231 ft | 277 kts | 131° |
| 2026-05-06 18:57 | 49.97862 | 14.50494 | 7671 ft | 275 kts | 152° |
| 2026-05-06 18:57 | 49.95606 | 14.52317 | 8352 ft | 279 kts | 156° |
| 2026-05-06 18:58 | 49.94441 | 14.53257 | 8828 ft | 280 kts | 156° |
| 2026-05-06 18:58 | 49.92711 | 14.54677 | 9570 ft | 282 kts | 156° |
| 2026-05-06 18:58 | 49.90961 | 14.56122 | 10089 ft | 291 kts | 156° |
| 2026-05-06 18:58 | 49.89103 | 14.57659 | 10244 ft | 315 kts | 156° |
| 2026-05-06 18:59 | 49.87093 | 14.59327 | 10467 ft | 338 kts | 155° |
| 2026-05-06 18:59 | 49.85017 | 14.61060 | 11062 ft | 349 kts | 155° |
| 2026-05-06 18:59 | 49.82857 | 14.62870 | 11853 ft | 356 kts | 155° |
| 2026-05-06 18:59 | 49.80675 | 14.64699 | 12903 ft | 357 kts | 155° |
| 2026-05-06 19:00 | 49.78481 | 14.66535 | 13921 ft | 360 kts | 155° |
| 2026-05-06 19:00 | 49.76255 | 14.68391 | 14791 ft | 366 kts | 155° |
| 2026-05-06 19:00 | 49.74001 | 14.70268 | 15691 ft | 370 kts | 156° |
| 2026-05-06 19:00 | 49.71725 | 14.72160 | 16605 ft | 374 kts | 156° |
| 2026-05-06 19:01 | 49.69421 | 14.74073 | 17510 ft | 379 kts | 156° |
| 2026-05-06 19:01 | 49.67077 | 14.76015 | 18339 ft | 384 kts | 156° |
| 2026-05-06 19:01 | 49.64714 | 14.77973 | 19200 ft | 387 kts | 156° |
| 2026-05-06 19:01 | 49.62332 | 14.79948 | 20071 ft | 389 kts | 156° |
| 2026-05-06 19:02 | 49.59944 | 14.81926 | 20914 ft | 392 kts | 157° |
| 2026-05-06 19:02 | 49.57530 | 14.83923 | 21753 ft | 396 kts | 157° |
| 2026-05-06 19:02 | 49.55087 | 14.85939 | 22562 ft | 400 kts | 157° |
| 2026-05-06 19:02 | 49.52614 | 14.87976 | 23374 ft | 404 kts | 157° |
| 2026-05-06 19:03 | 49.50156 | 14.89979 | 24015 ft | 408 kts | 157° |
| 2026-05-06 19:03 | 49.47599 | 14.92049 | 24591 ft | 413 kts | 158° |
| 2026-05-06 19:03 | 49.45074 | 14.94087 | 25165 ft | 418 kts | 158° |
| 2026-05-06 19:03 | 49.42488 | 14.96175 | 25747 ft | 421 kts | 158° |
| 2026-05-06 19:04 | 49.39884 | 14.98278 | 26350 ft | 424 kts | 158° |
| 2026-05-06 19:04 | 49.37263 | 15.00393 | 26917 ft | 428 kts | 158° |
| 2026-05-06 19:04 | 49.34622 | 15.02523 | 27436 ft | 432 kts | 158° |
| 2026-05-06 19:04 | 49.31947 | 15.04678 | 27952 ft | 436 kts | 158° |
| 2026-05-06 19:05 | 49.29253 | 15.06846 | 28465 ft | 439 kts | 158° |
| 2026-05-06 19:05 | 49.26490 | 15.09067 | 28758 ft | 444 kts | 158° |
| 2026-05-06 19:05 | 49.23805 | 15.11223 | 28720 ft | 443 kts | 158° |
| 2026-05-06 19:06 | 49.18345 | 15.15605 | 28853 ft | 445 kts | 159° |
| 2026-05-06 19:06 | 49.15591 | 15.17805 | 29340 ft | 448 kts | 159° |